createdAt,value
2019-02-28T00:05:11.614Z,4.70
2019-02-28T00:07:41.714Z,4.55
2019-02-28T00:10:31.480Z,4.54
2019-02-28T00:13:21.831Z,4.43
2019-02-28T00:15:52.694Z,4.48
2019-02-28T00:18:42.144Z,4.50
2019-02-28T00:21:12.717Z,4.58
2019-02-28T00:24:02.194Z,4.58
2019-02-28T00:26:32.298Z,4.60
2019-02-28T00:29:02.458Z,4.83
2019-02-28T00:34:15.243Z,4.81
2019-02-28T00:37:04.660Z,4.71
2019-02-28T00:39:54.156Z,4.78
2019-02-28T00:42:24.329Z,4.69
2019-02-28T00:44:54.489Z,4.67
2019-02-28T00:47:24.959Z,4.64
2019-02-28T00:50:14.437Z,4.58
2019-02-28T00:53:06.389Z,4.59
2019-02-28T00:55:35.466Z,4.57
2019-02-28T00:58:28.652Z,4.53
2019-02-28T01:00:56.537Z,4.57
2019-02-28T01:03:45.990Z,4.46
2019-02-28T01:06:35.470Z,4.44
2019-02-28T01:09:07.016Z,4.42
2019-02-28T01:11:37.220Z,4.44
2019-02-28T01:14:26.672Z,4.43
2019-02-28T01:16:56.795Z,4.33
2019-02-28T01:19:26.945Z,4.28
2019-02-28T01:22:16.136Z,4.28
2019-02-28T01:25:06.484Z,3.78
2019-02-28T01:30:57.849Z,4.21
2019-02-28T01:33:27.998Z,4.22
2019-02-28T01:36:17.188Z,4.16
2019-02-28T01:39:29.834Z,4.15
2019-02-28T01:42:19.980Z,4.09
2019-02-28T01:44:49.836Z,4.12
2019-02-28T01:47:21.346Z,4.16
2019-02-28T01:50:11.162Z,4.19
2019-02-28T01:52:45.679Z,4.23
2019-02-28T01:55:32.519Z,4.25
2019-02-28T01:58:21.728Z,4.29
2019-02-28T02:00:53.611Z,4.26
2019-02-28T02:03:24.094Z,4.25
2019-02-28T02:06:13.322Z,4.19
2019-02-28T02:08:43.438Z,4.23
2019-02-28T02:11:32.889Z,4.16
2019-02-28T02:14:03.624Z,4.20
2019-02-28T02:16:33.929Z,4.13
2019-02-28T02:19:23.421Z,4.06
2019-02-28T02:21:53.584Z,4.05
2019-02-28T02:24:24.394Z,4.09
2019-02-28T02:27:06.245Z,4.08
2019-02-28T02:29:37.112Z,4.11
2019-02-28T02:32:27.284Z,4.16
2019-02-28T02:35:16.497Z,4.20
2019-02-28T02:38:05.646Z,4.13
2019-02-28T02:40:58.995Z,4.21
2019-02-28T02:43:27.030Z,3.48
2019-02-28T02:46:20.172Z,4.07
2019-02-28T02:49:07.401Z,4.01
2019-02-28T02:51:56.884Z,4.05
2019-02-28T02:54:46.089Z,4.21
2019-02-28T02:57:16.287Z,4.26
2019-02-28T03:00:13.366Z,4.26
2019-02-28T03:02:57.416Z,4.29
2019-02-28T03:05:46.838Z,4.25
2019-02-28T03:08:37.305Z,4.36
2019-02-28T03:11:26.915Z,4.32
2019-02-28T03:14:17.324Z,4.19
2019-02-28T03:16:48.253Z,4.08
2019-02-28T03:19:18.792Z,3.87
2019-02-28T03:21:52.571Z,3.69
2019-02-28T03:24:39.923Z,3.52
2019-02-28T03:27:21.142Z,3.51
2019-02-28T03:29:51.345Z,3.51
2019-02-28T03:32:39.690Z,3.46
2019-02-28T03:35:16.591Z,3.48
2019-02-28T03:37:58.345Z,3.51
2019-02-28T03:40:28.586Z,3.55
2019-02-28T03:43:05.222Z,3.50
2019-02-28T03:45:50.006Z,3.47
2019-02-28T03:48:20.177Z,3.49
2019-02-28T03:50:55.342Z,3.46
2019-02-28T03:53:41.580Z,3.38
2019-02-28T03:56:30.913Z,3.35
2019-02-28T03:59:01.105Z,3.37
2019-02-28T04:01:31.766Z,3.40
2019-02-28T04:04:21.272Z,3.36
2019-02-28T04:07:15.391Z,3.34
2019-02-28T04:10:01.662Z,3.24
2019-02-28T04:12:50.848Z,3.25
2019-02-28T04:15:49.749Z,3.26
2019-02-28T04:18:31.254Z,3.19
2019-02-28T04:21:20.409Z,3.29
2019-02-28T04:23:50.559Z,3.26
2019-02-28T04:26:23.094Z,3.23
2019-02-28T04:28:54.729Z,3.23
2019-02-28T04:31:24.954Z,3.13
2019-02-28T04:33:55.173Z,3.11
2019-02-28T04:36:25.493Z,3.14
2019-02-28T04:38:55.633Z,3.17
2019-02-28T04:41:26.078Z,3.14
2019-02-28T04:44:18.278Z,3.09
2019-02-28T04:47:06.858Z,3.13
2019-02-28T04:49:57.725Z,3.13
2019-02-28T04:52:27.913Z,3.12
2019-02-28T04:55:17.419Z,3.11
2019-02-28T04:58:06.626Z,3.02
2019-02-28T05:00:56.134Z,3.03
2019-02-28T05:03:29.074Z,2.98
2019-02-28T05:06:18.365Z,3.00
2019-02-28T05:09:10.663Z,2.93
2019-02-28T05:12:02.383Z,3.00
2019-02-28T05:14:51.104Z,2.97
2019-02-28T05:17:22.305Z,2.91
2019-02-28T05:19:55.150Z,2.88
2019-02-28T05:22:44.470Z,2.85
2019-02-28T05:25:17.364Z,2.82
2019-02-28T05:27:46.965Z,2.76
2019-02-28T05:30:19.457Z,2.86
2019-02-28T05:32:49.798Z,2.88
2019-02-28T05:35:25.175Z,2.82
2019-02-28T05:38:11.199Z,2.84
2019-02-28T05:41:00.449Z,2.86
2019-02-28T05:43:49.634Z,2.90
2019-02-28T05:46:23.764Z,2.93
2019-02-28T05:49:12.062Z,2.93
2019-02-28T05:51:42.257Z,2.88
2019-02-28T05:58:00.418Z,2.92
2019-02-28T06:00:49.593Z,2.86
2019-02-28T06:03:38.954Z,1.98
2019-02-28T06:06:28.371Z,2.94
2019-02-28T06:09:17.571Z,2.90
2019-02-28T06:12:09.531Z,2.89
2019-02-28T06:15:02.190Z,2.88
2019-02-28T06:17:29.949Z,2.81
2019-02-28T06:20:00.370Z,2.77
2019-02-28T06:22:36.049Z,2.73
2019-02-28T06:25:24.970Z,2.73
2019-02-28T06:28:04.953Z,2.76
2019-02-28T06:30:35.574Z,2.78
2019-02-28T06:33:05.815Z,2.78
2019-02-28T06:35:45.816Z,2.73
2019-02-28T06:38:35.014Z,2.69
2019-02-28T06:41:24.201Z,2.74
2019-02-28T06:44:13.388Z,1.80
2019-02-28T06:47:02.566Z,2.73
2019-02-28T06:49:32.811Z,2.72
2019-02-28T06:52:25.242Z,2.76
2019-02-28T06:54:55.164Z,2.73
2019-02-28T06:57:44.348Z,2.76
2019-02-28T07:00:33.854Z,2.76
2019-02-28T07:03:04.499Z,2.77
2019-02-28T07:05:34.673Z,2.83
2019-02-28T07:08:24.808Z,2.86
2019-02-28T07:11:14.888Z,2.91
2019-02-28T07:13:56.348Z,2.96
2019-02-28T07:16:26.701Z,3.03
2019-02-28T07:18:56.924Z,3.13
2019-02-28T07:21:46.232Z,3.24
2019-02-28T07:24:37.586Z,3.30
2019-02-28T07:27:17.211Z,3.40
2019-02-28T07:29:47.474Z,3.46
2019-02-28T07:32:17.709Z,3.58
2019-02-28T07:34:59.036Z,3.72
2019-02-28T07:37:29.272Z,3.85
2019-02-28T07:39:59.530Z,3.90
2019-02-28T07:42:48.723Z,4.10
2019-02-28T07:45:37.922Z,4.29
2019-02-28T07:48:29.948Z,4.43
2019-02-28T07:51:21.847Z,4.64
2019-02-28T07:54:12.657Z,4.97
2019-02-28T07:56:43.214Z,5.53
2019-02-28T07:59:13.318Z,6.02
2019-02-28T08:01:43.626Z,6.70
2019-02-28T08:04:18.036Z,6.99
2019-02-28T08:06:46.042Z,7.16
2019-02-28T08:09:36.835Z,7.01
2019-02-28T08:12:07.219Z,6.32
2019-02-28T08:14:56.837Z,6.71
2019-02-28T08:17:26.996Z,6.75
2019-02-28T08:19:58.731Z,6.93
2019-02-28T08:22:31.292Z,7.05
2019-02-28T08:25:01.564Z,7.20
2019-02-28T08:27:31.751Z,7.45
2019-02-28T08:30:02.236Z,7.75
2019-02-28T08:32:51.660Z,8.11
2019-02-28T08:35:41.143Z,8.62
2019-02-28T08:38:34.271Z,9.40
2019-02-28T08:41:02.602Z,10.10
2019-02-28T08:43:51.934Z,10.79
2019-02-28T08:46:22.144Z,11.56
2019-02-28T08:49:11.604Z,12.74
2019-02-28T08:52:02.465Z,13.50
2019-02-28T08:54:51.995Z,14.46
2019-02-28T08:57:41.197Z,15.79
2019-02-28T09:00:34.300Z,16.70
2019-02-28T09:03:04.858Z,17.30
2019-02-28T09:05:54.060Z,17.78
2019-02-28T09:08:25.310Z,18.16
2019-02-28T09:10:56.121Z,18.18
2019-02-28T09:13:26.911Z,18.44
2019-02-28T09:16:16.352Z,19.44
2019-02-28T09:18:49.312Z,19.88
2019-02-28T09:21:41.218Z,20.01
2019-02-28T09:24:12.555Z,19.97
2019-02-28T09:27:04.088Z,19.99
2019-02-28T09:29:54.901Z,20.48
2019-02-28T09:32:29.214Z,20.86
2019-02-28T09:35:18.889Z,21.22
2019-02-28T09:38:00.284Z,20.54
2019-02-28T09:43:23.882Z,20.36
2019-02-28T09:46:12.485Z,20.85
2019-02-28T09:49:02.959Z,20.55
2019-02-28T09:51:52.516Z,20.13
2019-02-28T09:54:25.515Z,19.67
2019-02-28T09:56:56.755Z,19.65
2019-02-28T09:59:27.479Z,19.58
2019-02-28T10:02:01.470Z,19.65
2019-02-28T10:04:30.469Z,19.64
2019-02-28T10:07:23.439Z,19.74
2019-02-28T10:09:52.564Z,19.73
2019-02-28T10:12:43.099Z,19.46
2019-02-28T10:15:32.355Z,19.86
2019-02-28T10:18:04.240Z,20.15
2019-02-28T10:20:34.771Z,20.01
2019-02-28T10:23:24.000Z,19.93
2019-02-28T10:25:54.167Z,20.10
2019-02-28T10:28:43.389Z,20.63
2019-02-28T10:31:13.838Z,20.36
2019-02-28T10:33:44.406Z,20.08
2019-02-28T10:36:14.954Z,19.95
2019-02-28T10:38:56.559Z,19.87
2019-02-28T10:41:28.124Z,19.03
2019-02-28T10:43:58.953Z,18.76
2019-02-28T10:46:50.287Z,18.46
2019-02-28T10:49:21.074Z,18.49
2019-02-28T10:51:52.289Z,18.18
2019-02-28T10:54:24.149Z,17.98
2019-02-28T10:57:13.564Z,18.27
2019-02-28T10:59:43.723Z,18.28
2019-02-28T11:02:34.366Z,18.20
2019-02-28T11:05:07.982Z,18.28
2019-02-28T11:07:57.728Z,18.44
2019-02-28T11:10:47.059Z,18.41
2019-02-28T11:13:18.894Z,18.48
2019-02-28T11:15:49.670Z,18.48
2019-02-28T11:18:20.233Z,18.58
2019-02-28T11:20:51.021Z,18.38
2019-02-28T11:23:21.350Z,18.47
2019-02-28T11:25:53.022Z,18.48
2019-02-28T11:28:27.774Z,18.47
2019-02-28T11:31:16.334Z,18.37
2019-02-28T11:33:47.223Z,18.37
2019-02-28T11:36:20.543Z,18.51
2019-02-28T11:38:52.502Z,18.43
2019-02-28T11:41:42.919Z,18.56
2019-02-28T11:44:13.141Z,18.71
2019-02-28T11:46:43.756Z,18.75
2019-02-28T11:49:33.143Z,18.87
2019-02-28T11:52:03.296Z,19.20
2019-02-28T11:58:01.707Z,19.06
2019-02-28T12:00:35.639Z,19.41
2019-02-28T12:03:24.418Z,19.54
2019-02-28T12:06:14.957Z,19.47
2019-02-28T12:08:45.773Z,19.63
2019-02-28T12:11:57.605Z,19.27
2019-02-28T12:14:48.204Z,19.08
2019-02-28T12:17:18.437Z,19.00
2019-02-28T12:19:50.685Z,18.93
2019-02-28T12:22:39.522Z,18.97
2019-02-28T12:25:12.503Z,19.13
2019-02-28T12:27:43.798Z,19.25
2019-02-28T12:30:18.814Z,19.29
2019-02-28T12:33:08.033Z,19.07
2019-02-28T12:35:40.499Z,18.79
2019-02-28T12:38:10.156Z,18.66
2019-02-28T12:40:42.484Z,18.67
2019-02-28T12:43:12.748Z,18.77
2019-02-28T12:46:02.069Z,18.96
2019-02-28T12:48:51.305Z,19.22
2019-02-28T12:51:21.486Z,19.23
2019-02-28T12:54:10.702Z,19.29
2019-02-28T12:56:41.847Z,19.35
2019-02-28T12:59:12.092Z,19.38
2019-02-28T13:02:01.279Z,19.25
2019-02-28T13:04:50.552Z,19.14
2019-02-28T13:07:20.689Z,19.15
2019-02-28T13:09:52.667Z,19.67
2019-02-28T13:12:24.469Z,19.87
2019-02-28T13:14:54.864Z,20.10
2019-02-28T13:17:25.098Z,20.23
2019-02-28T13:19:56.574Z,20.33
2019-02-28T13:22:27.143Z,20.23
2019-02-28T13:24:57.356Z,19.74
2019-02-28T13:27:27.870Z,19.70
2019-02-28T13:29:58.154Z,19.83
2019-02-28T13:32:28.664Z,20.82
2019-02-28T13:35:03.083Z,21.48
2019-02-28T13:37:30.891Z,21.48
2019-02-28T13:40:04.289Z,20.84
2019-02-28T13:42:36.206Z,20.07
2019-02-28T13:45:24.934Z,19.89
2019-02-28T13:47:55.035Z,20.30
2019-02-28T13:50:27.089Z,20.51
2019-02-28T13:53:02.491Z,20.21
2019-02-28T13:55:29.628Z,19.95
2019-02-28T13:58:21.648Z,19.68
2019-02-28T14:00:51.180Z,19.64
2019-02-28T14:03:21.442Z,19.64
2019-02-28T14:05:51.865Z,19.64
2019-02-28T14:08:22.055Z,19.62
2019-02-28T14:10:55.090Z,19.71
2019-02-28T14:13:25.250Z,19.71
2019-02-28T14:15:56.804Z,19.66
2019-02-28T14:18:26.961Z,19.63
2019-02-28T14:20:59.439Z,19.55
2019-02-28T14:23:48.356Z,19.66
2019-02-28T14:26:18.516Z,19.73
2019-02-28T14:28:49.123Z,19.91
2019-02-28T14:31:39.082Z,19.73
2019-02-28T14:34:10.360Z,19.89
2019-02-28T14:36:44.837Z,20.06
2019-02-28T14:39:25.057Z,20.39
2019-02-28T14:41:57.789Z,20.61
2019-02-28T14:44:31.752Z,20.33
2019-02-28T14:47:24.927Z,20.08
2019-02-28T14:49:54.367Z,19.07
2019-02-28T14:52:26.170Z,19.87
2019-02-28T14:54:57.354Z,19.87
2019-02-28T14:57:48.848Z,20.62
2019-02-28T15:00:42.075Z,21.31
2019-02-28T15:03:29.782Z,22.31
2019-02-28T15:06:19.011Z,22.39
2019-02-28T15:09:14.240Z,20.52
2019-02-28T15:12:03.678Z,19.65
2019-02-28T15:14:52.823Z,19.45
2019-02-28T15:17:42.054Z,19.49
2019-02-28T15:20:32.906Z,20.57
2019-02-28T15:23:22.188Z,21.47
2019-02-28T15:26:11.625Z,22.75
2019-02-28T15:28:45.506Z,21.59
2019-02-28T15:33:57.480Z,21.84
2019-02-28T15:36:46.615Z,22.31
2019-02-28T15:39:17.378Z,22.57
2019-02-28T15:42:09.039Z,21.69
2019-02-28T15:45:00.424Z,20.86
2019-02-28T15:51:00.345Z,19.39
2019-02-28T15:53:50.369Z,19.04
2019-02-28T15:56:39.616Z,18.51
2019-02-28T15:59:28.760Z,18.35
2019-02-28T16:02:18.045Z,18.15
2019-02-28T16:04:48.148Z,18.03
2019-02-28T16:07:37.371Z,17.82
2019-02-28T16:10:28.553Z,16.82
2019-02-28T16:13:18.146Z,17.39
2019-02-28T16:16:07.694Z,17.25
2019-02-28T16:18:47.989Z,17.18
2019-02-28T16:21:38.205Z,17.13
2019-02-28T16:24:28.229Z,16.97
2019-02-28T16:27:17.389Z,16.83
2019-02-28T16:30:07.346Z,16.72
2019-02-28T16:32:37.544Z,16.52
2019-02-28T16:35:28.887Z,16.34
2019-02-28T16:38:17.763Z,16.20
2019-02-28T16:41:06.893Z,16.07
2019-02-28T16:43:57.160Z,15.90
2019-02-28T16:46:49.945Z,15.79
2019-02-28T16:49:19.180Z,15.73
2019-02-28T16:55:03.824Z,15.49
2019-02-28T16:57:52.990Z,15.37
2019-02-28T17:00:23.129Z,15.33
2019-02-28T17:03:12.606Z,15.23
2019-02-28T17:06:02.356Z,15.14
2019-02-28T17:09:15.024Z,15.12
2019-02-28T17:14:52.409Z,14.98
2019-02-28T17:20:23.769Z,14.82
2019-02-28T17:23:13.006Z,14.63
2019-02-28T17:25:43.275Z,14.57
2019-02-28T17:31:44.552Z,14.25
2019-02-28T17:34:23.877Z,14.34
2019-02-28T17:36:52.221Z,14.18
2019-02-28T17:39:25.189Z,14.12
2019-02-28T17:41:55.688Z,14.02
2019-02-28T17:44:51.458Z,13.96
2019-02-28T17:48:09.623Z,13.93
2019-02-28T17:51:15.009Z,13.89
2019-02-28T17:54:04.783Z,13.75
2019-02-28T17:57:16.539Z,13.65
2019-02-28T18:00:12.953Z,13.63
2019-02-28T18:03:18.590Z,13.52
2019-02-28T18:06:11.980Z,13.41
2019-02-28T18:09:22.174Z,13.31
2019-02-28T18:12:31.317Z,13.22
2019-02-28T18:15:25.660Z,13.17
2019-02-28T18:18:33.178Z,13.09
2019-02-28T18:21:32.106Z,13.01
2019-02-28T18:24:58.493Z,12.96
2019-02-28T18:28:22.596Z,12.84
2019-02-28T18:31:04.386Z,12.72
2019-02-28T18:33:34.636Z,12.66
2019-02-28T18:36:10.616Z,12.63
2019-02-28T18:38:40.783Z,12.52
2019-02-28T18:41:11.101Z,12.48
2019-02-28T18:43:42.109Z,12.33
2019-02-28T18:46:12.549Z,12.26
2019-02-28T18:48:43.497Z,12.17
2019-02-28T18:51:14.244Z,12.19
2019-02-28T18:53:44.966Z,12.14
2019-02-28T18:56:15.195Z,12.07
2019-02-28T18:58:45.323Z,12.07
2019-02-28T19:01:15.477Z,12.05
2019-02-28T19:03:46.403Z,12.00
2019-02-28T19:06:17.179Z,11.92
2019-02-28T19:08:48.367Z,11.85
2019-02-28T19:11:21.965Z,11.76
2019-02-28T19:13:52.516Z,11.78
2019-02-28T19:16:23.252Z,11.71
2019-02-28T19:18:54.056Z,11.69
2019-02-28T19:21:24.301Z,11.67
2019-02-28T19:23:59.550Z,11.66
2019-02-28T19:26:29.870Z,11.66
2019-02-28T19:29:02.064Z,11.62
2019-02-28T19:31:33.565Z,11.75
2019-02-28T19:34:04.571Z,11.75
2019-02-28T19:36:35.043Z,11.80
2019-02-28T19:39:06.903Z,11.79
2019-02-28T19:41:37.560Z,11.78
2019-02-28T19:44:08.925Z,11.78
2019-02-28T19:46:39.209Z,11.70
2019-02-28T19:49:10.527Z,11.67
2019-02-28T19:51:41.169Z,11.65
2019-02-28T19:54:14.179Z,11.62
2019-02-28T19:56:47.492Z,11.59
2019-02-28T19:59:18.125Z,11.56
2019-02-28T20:01:48.441Z,11.49
2019-02-28T20:04:18.980Z,11.49
2019-02-28T20:06:51.125Z,11.49
2019-02-28T20:09:21.966Z,11.41
2019-02-28T20:11:53.890Z,11.42
2019-02-28T20:14:26.094Z,11.39
2019-02-28T20:16:56.781Z,11.31
2019-02-28T20:19:28.045Z,11.28
2019-02-28T20:21:59.782Z,11.18
2019-02-28T20:24:31.418Z,11.11
2019-02-28T20:27:01.684Z,11.01
2019-02-28T20:29:31.990Z,11.02
2019-02-28T20:32:03.206Z,11.05
2019-02-28T20:34:35.937Z,11.11
2019-02-28T20:37:07.907Z,11.19
2019-02-28T20:39:38.381Z,11.22
2019-02-28T20:42:08.520Z,11.18
2019-02-28T20:44:38.703Z,11.19
2019-02-28T20:47:09.346Z,11.22
2019-02-28T20:49:46.510Z,11.21
2019-02-28T20:52:17.281Z,11.20
2019-02-28T20:54:51.607Z,11.20
2019-02-28T20:57:21.715Z,11.22
2019-02-28T20:59:51.998Z,11.23
2019-02-28T21:02:22.476Z,11.25
2019-02-28T21:04:52.804Z,11.20
2019-02-28T21:07:23.226Z,11.23
2019-02-28T21:09:53.675Z,11.24
2019-02-28T21:12:23.841Z,11.25
2019-02-28T21:14:53.977Z,11.25
2019-02-28T21:17:29.388Z,11.21
2019-02-28T21:19:56.728Z,11.20
2019-02-28T21:22:29.738Z,11.14
2019-02-28T21:24:59.921Z,11.18
2019-02-28T21:27:30.147Z,11.21
2019-02-28T21:30:01.805Z,11.18
2019-02-28T21:32:34.663Z,11.22
2019-02-28T21:35:04.859Z,11.21
2019-02-28T21:37:34.972Z,11.16
2019-02-28T21:40:05.884Z,11.18
2019-02-28T21:42:36.049Z,11.14
2019-02-28T21:45:10.938Z,11.05
2019-02-28T21:47:41.395Z,11.10
2019-02-28T21:50:13.648Z,11.08
2019-02-28T21:52:43.848Z,11.13
2019-02-28T21:55:14.623Z,11.12
2019-02-28T21:57:44.940Z,11.19
2019-02-28T22:00:21.139Z,11.16
2019-02-28T22:02:51.538Z,11.10
2019-02-28T22:05:22.371Z,11.13
2019-02-28T22:07:53.114Z,11.13
2019-02-28T22:10:23.551Z,11.16
2019-02-28T22:12:54.722Z,11.11
2019-02-28T22:15:24.895Z,11.08
2019-02-28T22:17:55.400Z,11.04
2019-02-28T22:20:26.735Z,10.99
2019-02-28T22:22:57.465Z,10.94
2019-02-28T22:25:29.516Z,11.00
2019-02-28T22:28:00.745Z,10.91
2019-02-28T22:31:05.027Z,10.87
2019-02-28T22:33:44.569Z,10.93
2019-02-28T22:36:18.640Z,10.90
2019-02-28T22:38:51.334Z,10.84
2019-02-28T22:41:23.572Z,10.87
2019-02-28T22:43:54.384Z,10.86
2019-02-28T22:46:34.565Z,10.88
2019-02-28T22:49:07.799Z,10.81
2019-02-28T22:51:40.349Z,10.75
2019-02-28T22:54:10.796Z,10.65
2019-02-28T22:56:44.033Z,10.63
2019-02-28T22:59:15.231Z,10.62
2019-02-28T23:01:48.140Z,10.53
2019-02-28T23:04:18.481Z,10.45
2019-02-28T23:06:49.659Z,10.38
2019-02-28T23:09:19.854Z,10.24
2019-02-28T23:11:51.460Z,10.13
2019-02-28T23:14:21.727Z,10.11
2019-02-28T23:16:52.028Z,10.14
2019-02-28T23:19:22.389Z,10.06
2019-02-28T23:21:55.159Z,10.02
2019-02-28T23:24:26.674Z,10.00
2019-02-28T23:27:14.137Z,10.00
2019-02-28T23:29:52.868Z,10.03
2019-02-28T23:32:51.535Z,10.03
2019-02-28T23:35:26.918Z,10.02
2019-02-28T23:37:57.111Z,9.83
2019-02-28T23:40:29.166Z,9.72
2019-02-28T23:42:59.335Z,9.55
2019-02-28T23:45:29.859Z,9.46
2019-02-28T23:48:00.153Z,9.38
2019-02-28T23:50:30.809Z,9.40
2019-02-28T23:53:01.266Z,9.33
2019-02-28T23:55:40.027Z,9.23
2019-02-28T23:58:10.671Z,9.27
